Time;durP1;ratioP1;P1;durP2;ratioP2;P2;SDS_P1;SDS_P2;PMS_P1;PMS_P2;Temp;Humidity;BMP_temperature;BMP_pressure;BME280_temperature;BME280_humidity;BME280_pressure;Samples;Min_cycle;Max_cycle;Signal;HPM_P1;HPM_P2
2022/06/12 00:02:18;;;;;;;4.93;2.28;;;;;;;21.40;60.03;100461.38;4996529;28;20108;-83
2022/06/12 00:04:43;;;;;;;5.53;2.42;;;;;;;21.43;60.74;100469.13;4979804;28;20045;-84
2022/06/12 00:07:09;;;;;;;2.70;1.80;;;;;;;21.44;60.21;100461.81;4978629;28;20034;-84
2022/06/12 00:09:34;;;;;;;2.40;1.60;;;;;;;21.40;60.44;100464.09;4980430;28;20030;-84
2022/06/12 00:11:59;;;;;;;4.03;2.20;;;;;;;21.39;60.38;100467.84;4996626;28;20030;-83
2022/06/12 00:14:25;;;;;;;3.10;2.13;;;;;;;21.33;60.17;100472.19;4979224;28;20043;-83
2022/06/12 00:16:52;;;;;;;3.60;2.10;;;;;;;21.20;60.60;100471.16;4974064;28;20043;-84
2022/06/12 00:19:18;;;;;;;3.60;1.90;;;;;;;20.96;60.71;100469.66;4982728;28;20034;-83
2022/06/12 00:21:43;;;;;;;4.82;1.80;;;;;;;20.93;61.13;100467.34;4978535;28;20027;-83
2022/06/12 00:24:12;;;;;;;4.38;1.92;;;;;;;21.02;60.74;100471.63;4979024;28;20068;-83
2022/06/12 00:26:44;;;;;;;4.05;2.22;;;;;;;21.04;61.35;100466.81;4980955;28;20347;-87
2022/06/12 00:29:13;;;;;;;3.67;1.90;;;;;;;21.08;61.27;100467.28;4982768;28;20031;-87
2022/06/12 00:31:42;;;;;;;4.03;1.92;;;;;;;21.11;61.47;100466.88;4979707;28;20046;-88
2022/06/12 00:34:10;;;;;;;4.18;1.90;;;;;;;21.10;61.17;100463.31;4997576;28;20030;-83
2022/06/12 00:36:36;;;;;;;6.55;2.60;;;;;;;21.08;61.41;100457.25;4995481;28;20029;-83
2022/06/12 00:39:02;;;;;;;4.25;2.03;;;;;;;21.03;61.17;100459.69;4998825;28;20029;-83
2022/06/12 00:41:27;;;;;;;5.13;2.03;;;;;;;20.96;60.55;100462.34;4990243;28;20030;-83
2022/06/12 00:43:53;;;;;;;4.88;2.35;;;;;;;20.89;61.43;100469.59;4999686;28;20049;-83
2022/06/12 00:46:45;;;;;;;2.53;1.83;;;;;;;20.83;61.48;100459.50;4984341;28;20029;-84
2022/06/12 00:49:22;;;;;;;2.92;1.95;;;;;;;20.83;61.09;100458.66;5015624;28;20035;-83
2022/06/12 00:51:49;;;;;;;3.10;1.77;;;;;;;20.75;61.10;100465.88;4984271;28;20021;-83
2022/06/12 00:54:15;;;;;;;4.85;2.05;;;;;;;20.84;61.26;100463.91;5000616;28;20381;-87
2022/06/12 00:56:47;;;;;;;5.35;2.10;;;;;;;20.89;61.37;100466.03;5474585;23;20051;-85
2022/06/12 00:59:17;;;;;;;4.75;1.98;;;;;;;20.90;60.89;100463.13;4994397;28;20109;-83
2022/06/12 01:01:46;;;;;;;3.70;2.10;;;;;;;20.78;60.58;100467.34;4993078;28;20018;-84
2022/06/12 01:06:59;;;;;;;4.15;1.83;;;;;;;20.75;61.15;100456.88;5009259;28;20029;-83
2022/06/12 01:09:30;;;;;;;6.47;2.03;;;;;;;20.78;61.05;100455.63;5003206;28;20026;-83
2022/06/12 01:11:57;;;;;;;3.90;1.88;;;;;;;20.76;61.10;100461.28;4992261;28;20097;-83
2022/06/12 01:14:26;;;;;;;3.80;1.73;;;;;;;20.74;61.46;100464.19;5009289;28;20466;-83
2022/06/12 01:16:53;;;;;;;5.22;2.00;;;;;;;20.72;61.37;100465.41;4993038;28;20455;-85
2022/06/12 01:19:40;;;;;;;4.28;1.65;;;;;;;20.68;61.30;100456.78;4983915;28;20033;-85
2022/06/12 01:22:46;;;;;;;5.00;1.80;;;;;;;20.63;60.84;100458.41;5008860;28;20022;-83
2022/06/12 01:25:30;;;;;;;3.67;1.75;;;;;;;20.62;60.85;100459.44;5024650;28;20022;-83
2022/06/12 01:28:35;;;;;;;4.43;1.80;;;;;;;20.61;60.58;100450.44;5000378;28;20027;-84
2022/06/12 01:31:17;;;;;;;3.30;1.60;;;;;;;20.57;60.97;100448.28;4990034;28;20113;-83
2022/06/12 01:33:59;;;;;;;5.35;1.67;;;;;;;20.41;61.06;100450.19;4999164;28;20042;-83
2022/06/12 01:36:29;;;;;;;4.55;1.65;;;;;;;20.49;60.89;100445.69;5002332;28;20041;-83
2022/06/12 01:39:03;;;;;;;3.47;1.77;;;;;;;20.55;60.69;100453.91;5008346;28;20039;-84
2022/06/12 01:41:38;;;;;;;5.35;1.98;;;;;;;20.45;61.09;100438.94;5017294;28;20041;-83
2022/06/12 01:44:29;;;;;;;3.83;1.80;;;;;;;20.41;61.19;100452.06;4997346;28;20285;-86
2022/06/12 01:46:56;;;;;;;5.40;2.50;;;;;;;20.45;61.48;100444.38;5002738;28;20030;-83
2022/06/12 01:49:44;;;;;;;4.40;1.90;;;;;;;20.35;60.67;100441.94;4985953;28;20542;-84
2022/06/12 01:52:47;;;;;;;4.00;1.90;;;;;;;20.10;61.07;100447.66;4990847;28;20037;-83
2022/06/12 01:55:46;;;;;;;4.93;1.92;;;;;;;20.10;61.36;100435.94;5002058;28;20305;-83
2022/06/12 01:58:14;;;;;;;5.85;2.30;;;;;;;20.16;61.41;100445.22;4986106;28;20058;-84
2022/06/12 02:00:43;;;;;;;3.97;2.05;;;;;;;20.15;61.27;100446.25;5000246;28;20502;-83
2022/06/12 02:03:28;;;;;;;4.35;1.77;;;;;;;20.08;61.34;100449.72;5000215;28;20097;-83
2022/06/12 02:06:01;;;;;;;5.78;2.17;;;;;;;20.07;60.45;100448.03;5000697;28;20136;-84
2022/06/12 02:08:33;;;;;;;5.72;2.00;;;;;;;20.09;61.26;100455.97;4996158;28;20029;-83
2022/06/12 02:13:51;;;;;;;3.25;1.70;;;;;;;20.08;60.07;100457.84;4997351;28;20510;-84
2022/06/12 02:16:31;;;;;;;4.78;1.92;;;;;;;20.09;60.48;100453.25;4998594;28;20116;-83
2022/06/12 02:19:00;;;;;;;5.13;2.03;;;;;;;19.92;59.89;100457.19;5015537;28;20034;-83
2022/06/12 02:21:29;;;;;;;;;;;;;;;19.87;59.95;100452.34;4996334;28;20318;-83
2022/06/12 02:24:05;;;;;;;4.18;1.95;;;;;;;19.82;59.80;100460.16;4989178;28;19917;-84
2022/06/12 02:26:44;;;;;;;4.65;1.70;;;;;;;19.80;60.66;100452.19;5000039;28;20073;-83
2022/06/12 02:29:20;;;;;;;4.50;1.90;;;;;;;19.84;61.14;100457.25;4984441;28;20075;-83
2022/06/12 02:31:49;;;;;;;3.13;1.85;;;;;;;19.84;60.67;100457.25;4991644;28;20026;-83
2022/06/12 02:34:25;;;;;;;5.30;1.85;;;;;;;19.79;60.90;100455.09;4996460;28;20105;-83
2022/06/12 02:36:55;;;;;;;5.65;1.88;;;;;;;19.76;61.08;100450.03;4995428;28;20441;-83
2022/06/12 02:39:30;;;;;;;3.47;1.92;;;;;;;19.75;60.31;100445.66;4997085;28;20045;-83
2022/06/12 02:42:06;;;;;;;5.25;2.30;;;;;;;19.69;60.51;100444.50;4998901;28;20692;-84
2022/06/12 02:44:37;;;;;;;5.15;2.20;;;;;;;19.61;61.03;100449.19;4999135;28;20042;-83
2022/06/12 02:47:06;;;;;;;5.30;2.20;;;;;;;19.45;61.52;100451.00;4995249;28;20030;-83
2022/06/12 02:49:34;;;;;;;5.45;2.15;;;;;;;19.48;61.11;100447.91;4998964;28;20029;-83
2022/06/12 02:52:26;;;;;;;5.18;2.08;;;;;;;19.46;61.03;100455.41;4999149;28;20473;-83
2022/06/12 02:55:16;;;;;;;6.72;2.13;;;;;;;19.49;61.07;100449.59;4991233;28;20046;-83
2022/06/12 02:57:56;;;;;;;5.35;1.92;;;;;;;19.58;60.73;100450.41;5014341;28;20061;-83
2022/06/12 03:00:34;;;;;;;3.90;1.77;;;;;;;19.68;60.86;100455.56;4997095;28;20440;-83
2022/06/12 03:03:37;;;;;;;3.80;2.03;;;;;;;19.73;60.55;100451.25;4988346;28;20095;-84
2022/06/12 03:06:03;;;;;;;5.72;2.15;;;;;;;19.73;60.81;100450.41;4996204;28;20046;-83
2022/06/12 03:08:32;;;;;;;4.40;2.10;;;;;;;19.70;61.60;100454.34;4997483;28;20399;-83
2022/06/12 03:11:04;;;;;;;4.35;1.92;;;;;;;19.56;61.50;100446.19;4996078;28;20116;-83
2022/06/12 03:13:32;;;;;;;5.03;2.00;;;;;;;19.57;61.63;100448.72;4999987;28;20087;-83
2022/06/12 03:16:19;;;;;;;5.47;1.95;;;;;;;19.61;61.16;100452.75;4997826;28;20025;-83
2022/06/12 03:18:54;;;;;;;4.40;1.83;;;;;;;19.59;61.25;100465.66;4998389;28;20062;-83
2022/06/12 03:21:24;;;;;;;4.22;1.80;;;;;;;19.65;60.88;100458.63;4990687;28;20050;-83
2022/06/12 03:24:03;;;;;;;5.50;1.90;;;;;;;19.63;60.72;100456.13;5001165;28;20515;-83
2022/06/12 03:26:31;;;;;;;2.83;1.73;;;;;;;19.59;61.88;100460.22;4988922;28;20061;-83
2022/06/12 03:29:31;;;;;;;7.88;2.10;;;;;;;19.68;61.02;100459.13;5004166;28;20354;-83
2022/06/12 03:32:02;;;;;;;4.00;1.95;;;;;;;19.66;59.32;100461.16;4994705;28;20057;-83
2022/06/12 03:34:50;;;;;;;4.10;1.80;;;;;;;19.67;59.38;100456.59;4995427;28;20479;-83
2022/06/12 03:37:26;;;;;;;3.80;1.83;;;;;;;19.67;58.46;100465.56;4993833;28;20384;-83
2022/06/12 03:40:00;;;;;;;4.90;1.80;;;;;;;19.67;58.38;100468.28;4981986;28;20022;-83
2022/06/12 03:43:01;;;;;;;3.30;1.67;;;;;;;19.60;57.44;100470.06;4996692;28;20033;-83
2022/06/12 03:45:37;;;;;;;4.53;1.65;;;;;;;19.62;57.54;100469.88;5003175;28;20034;-82
2022/06/12 03:48:24;;;;;;;2.95;1.35;;;;;;;19.58;57.38;100472.09;5013930;28;20104;-83
2022/06/12 03:51:14;;;;;;;2.25;1.33;;;;;;;19.52;56.95;100474.69;4998220;28;20033;-84
2022/06/12 03:53:45;;;;;;;6.05;1.60;;;;;;;19.57;56.90;100475.84;5004928;28;20033;-83
2022/06/12 03:59:13;;;;;;;3.35;1.30;;;;;;;19.54;56.09;100480.78;4998584;28;20395;-83
2022/06/12 04:01:40;;;;;;;3.50;1.48;;;;;;;19.52;57.32;100472.81;4996925;28;20022;-83
2022/06/12 04:04:06;;;;;;;4.25;1.40;;;;;;;19.52;56.92;100470.09;4996512;28;20053;-83
2022/06/12 04:06:31;;;;;;;2.50;1.25;;;;;;;19.50;57.31;100466.72;4998193;28;20053;-83
2022/06/12 04:09:04;;;;;;;5.05;2.28;;;;;;;19.49;57.04;100465.03;4995344;28;20116;-83
2022/06/12 04:11:32;;;;;;;3.15;1.50;;;;;;;19.48;57.37;100466.06;4996094;28;20328;-83
2022/06/12 04:13:58;;;;;;;2.45;1.20;;;;;;;19.48;56.78;100469.63;4994003;28;20041;-83
2022/06/12 04:16:34;;;;;;;4.82;1.35;;;;;;;19.45;56.04;100466.44;4999519;28;20128;-83
2022/06/12 04:19:07;;;;;;;3.58;1.50;;;;;;;19.43;57.14;100466.63;4980053;28;20368;-83
2022/06/12 04:21:46;;;;;;;3.60;1.42;;;;;;;19.43;57.00;100469.31;4987898;28;20101;-87
2022/06/12 04:24:16;;;;;;;2.90;1.23;;;;;;;19.38;57.41;100474.44;4994575;28;20468;-83
2022/06/12 04:26:56;;;;;;;3.55;1.55;;;;;;;19.37;56.99;100472.75;4988064;28;20061;-83
2022/06/12 04:29:26;;;;;;;2.53;1.45;;;;;;;19.40;57.88;100471.56;4998031;28;20026;-83
2022/06/12 04:31:55;;;;;;;4.70;1.50;;;;;;;19.42;57.65;100472.22;4999842;28;20025;-83
2022/06/12 04:34:33;;;;;;;;;;;;;;;19.42;57.59;100474.94;5004267;28;20022;-83
2022/06/12 04:37:09;;;;;;;4.82;1.85;;;;;;;19.41;57.46;100470.53;4997189;28;20423;-82
2022/06/12 04:39:35;;;;;;;4.55;1.60;;;;;;;19.39;57.79;100476.16;5003981;28;20073;-83
2022/06/12 04:42:01;;;;;;;2.88;1.35;;;;;;;19.35;57.73;100477.50;4981297;28;20030;-83
2022/06/12 04:44:27;;;;;;;4.05;1.77;;;;;;;19.34;57.73;100472.25;4987558;28;20112;-83
2022/06/12 04:46:53;;;;;;;5.05;1.55;;;;;;;19.37;56.93;100475.44;5004239;28;20113;-83
2022/06/12 04:49:22;;;;;;;3.58;1.30;;;;;;;19.40;57.76;100471.56;4997119;28;20362;-83
2022/06/12 04:51:49;;;;;;;3.53;1.20;;;;;;;19.39;57.01;100475.28;4987619;28;20040;-83
2022/06/12 04:54:15;;;;;;;3.35;1.60;;;;;;;19.36;57.81;100479.19;4994050;28;20040;-83
2022/06/12 04:56:40;;;;;;;5.00;1.48;;;;;;;19.35;57.89;100469.38;4988169;28;20053;-83
2022/06/12 04:59:07;;;;;;;3.55;1.45;;;;;;;19.35;57.57;100479.38;4999940;28;20439;-83
2022/06/12 05:01:32;;;;;;;3.60;1.50;;;;;;;19.32;58.02;100474.31;4995825;28;20121;-83
2022/06/12 05:03:59;;;;;;;4.13;1.45;;;;;;;19.37;57.98;100471.91;4988810;28;20735;-83
2022/06/12 05:06:25;;;;;;;3.85;1.45;;;;;;;19.34;57.42;100470.38;4996270;28;20034;-83
2022/06/12 05:08:52;;;;;;;4.28;1.48;;;;;;;19.39;57.34;100481.56;4988496;28;20025;-83
2022/06/12 05:11:18;;;;;;;3.25;1.42;;;;;;;19.38;57.39;100470.88;4988912;28;20029;-83
2022/06/12 05:13:44;;;;;;;4.25;1.40;;;;;;;19.35;57.61;100476.66;4999305;28;20072;-83
2022/06/12 05:16:21;;;;;;;4.47;1.60;;;;;;;19.32;58.45;100469.72;5002784;28;20061;-83
2022/06/12 05:18:46;;;;;;;4.28;1.20;;;;;;;19.34;57.45;100480.41;4999204;28;20037;-83
2022/06/12 05:21:12;;;;;;;2.92;1.30;;;;;;;19.35;57.37;100485.63;4987252;28;20038;-83
2022/06/12 05:23:37;;;;;;;4.32;1.40;;;;;;;19.35;58.01;100484.78;4987865;28;20040;-83
2022/06/12 05:26:03;;;;;;;3.08;1.35;;;;;;;19.34;57.83;100488.53;4989443;28;20084;-83
2022/06/12 05:28:29;;;;;;;3.72;1.30;;;;;;;19.38;57.93;100481.72;4999464;28;20225;-83
2022/06/12 05:30:54;;;;;;;3.33;1.25;;;;;;;19.32;57.22;100477.88;4998768;28;20014;-83
2022/06/12 05:33:20;;;;;;;2.80;1.38;;;;;;;19.35;58.07;100479.38;4991156;28;20136;-83
2022/06/12 05:35:45;;;;;;;4.93;1.30;;;;;;;19.37;57.85;100478.16;4989726;28;20473;-82
2022/06/12 05:38:11;;;;;;;3.78;1.30;;;;;;;19.34;57.56;100474.97;5001524;28;20037;-83
2022/06/12 05:40:38;;;;;;;3.90;1.30;;;;;;;19.32;57.33;100472.44;4999347;28;20488;-83
2022/06/12 05:43:04;;;;;;;5.55;1.27;;;;;;;19.32;57.87;100472.44;4989440;28;20033;-83
2022/06/12 05:45:30;;;;;;;3.80;1.30;;;;;;;19.40;56.94;100477.00;4998050;28;20029;-83
2022/06/12 05:48:09;;;;;;;4.35;1.17;;;;;;;19.42;57.30;100472.22;5001692;28;20054;-83
2022/06/12 05:50:36;;;;;;;3.20;1.17;;;;;;;19.38;56.94;100476.28;5017394;28;20022;-83
2022/06/12 05:53:02;;;;;;;3.67;1.27;;;;;;;19.42;56.62;100480.38;4999119;28;20087;-83
2022/06/12 05:55:28;;;;;;;3.47;1.40;;;;;;;19.40;56.60;100479.69;4998906;28;20030;-83
2022/06/12 05:57:53;;;;;;;4.93;1.33;;;;;;;19.44;56.76;100472.88;4998352;28;20029;-83
2022/06/12 06:00:23;;;;;;;2.70;1.30;;;;;;;19.40;57.42;100477.84;5004507;28;20328;-83
2022/06/12 06:02:48;;;;;;;3.20;1.33;;;;;;;19.41;56.86;100475.97;5002488;28;20175;-83
2022/06/12 06:05:14;;;;;;;3.65;1.38;;;;;;;19.48;56.75;100476.91;4993504;28;20475;-83
2022/06/12 06:07:40;;;;;;;4.05;1.52;;;;;;;19.47;56.77;100475.22;5001861;28;20038;-83
2022/06/12 06:10:08;;;;;;;4.78;1.50;;;;;;;19.46;57.58;100477.09;5001913;28;20040;-82
2022/06/12 06:12:33;;;;;;;3.90;1.30;;;;;;;19.55;57.91;100479.78;5005518;28;20100;-83
2022/06/12 06:14:59;;;;;;;4.22;1.40;;;;;;;19.61;56.70;100484.47;5002176;28;20598;-83
2022/06/12 06:17:24;;;;;;;6.00;1.40;;;;;;;19.61;56.86;100481.75;5014364;28;20547;-83
2022/06/12 06:19:49;;;;;;;3.85;1.48;;;;;;;19.56;56.36;100470.59;5008500;28;20034;-83
2022/06/12 06:22:18;;;;;;;5.03;1.70;;;;;;;19.49;56.11;100473.19;5000580;28;20467;-83
2022/06/12 06:24:43;;;;;;;5.03;1.60;;;;;;;19.49;56.01;100476.72;5004868;28;20030;-81
2022/06/12 06:27:10;;;;;;;4.97;1.30;;;;;;;19.51;55.91;100481.97;4995886;28;20044;-82
2022/06/12 06:29:37;;;;;;;3.63;1.20;;;;;;;19.61;56.22;100484.47;4997321;28;20021;-81
2022/06/12 06:32:04;;;;;;;3.08;1.23;;;;;;;19.56;55.66;100484.16;5019321;28;20033;-82
2022/06/12 06:34:30;;;;;;;4.13;1.50;;;;;;;19.53;55.60;100490.81;4993865;28;20028;-82
2022/06/12 06:36:56;;;;;;;4.00;1.40;;;;;;;19.54;55.71;100491.66;5001240;28;20399;-82
2022/06/12 06:39:21;;;;;;;3.78;1.40;;;;;;;19.52;55.83;100496.38;5013484;28;20026;-84
2022/06/12 06:41:46;;;;;;;3.42;1.23;;;;;;;19.53;55.78;100501.66;5004250;28;20478;-85
2022/06/12 06:46:56;;;;;;;2.70;1.05;;;;;;;19.62;55.38;100497.84;5005221;28;20088;-83
2022/06/12 06:49:23;;;;;;;5.50;1.35;;;;;;;19.55;55.28;100496.91;5003981;28;20026;-84
2022/06/12 06:51:49;;;;;;;3.95;1.08;;;;;;;19.56;55.62;100497.75;5010094;28;20063;-86
2022/06/12 06:54:15;;;;;;;2.63;1.00;;;;;;;19.62;56.42;100497.00;5002901;28;20057;-82
2022/06/12 06:56:41;;;;;;;4.57;1.17;;;;;;;19.58;55.40;100501.94;5002377;28;20053;-83
2022/06/12 06:59:06;;;;;;;2.35;0.93;;;;;;;19.62;54.97;100491.56;4987857;28;20033;-81
2022/06/12 07:01:31;;;;;;;3.25;0.98;;;;;;;19.67;55.00;100498.13;4999595;28;20192;-82
2022/06/12 07:03:57;;;;;;;4.35;1.30;;;;;;;19.70;55.28;100507.78;5004311;28;20045;-82
2022/06/12 07:06:22;;;;;;;3.92;1.10;;;;;;;19.68;55.61;100504.41;5008246;28;20037;-82
2022/06/12 07:08:48;;;;;;;3.92;1.17;;;;;;;19.59;55.27;100503.63;4984778;28;20030;-83
2022/06/12 07:11:13;;;;;;;5.68;1.70;;;;;;;19.59;55.32;100506.34;4998341;28;20021;-82
2022/06/12 07:13:39;;;;;;;6.95;1.50;;;;;;;19.57;54.88;100502.97;5000666;28;20056;-82
2022/06/12 07:16:05;;;;;;;3.88;1.33;;;;;;;19.59;55.48;100495.50;5000111;28;20041;-84
2022/06/12 07:18:30;;;;;;;3.67;1.50;;;;;;;19.72;55.93;100495.72;5002353;28;20025;-82
2022/06/12 07:20:57;;;;;;;3.35;1.08;;;;;;;19.73;56.75;100491.13;5005891;28;20052;-87
2022/06/12 07:23:23;;;;;;;3.70;1.40;;;;;;;19.66;55.96;100499.16;4996934;28;20568;-82
2022/06/12 07:25:54;;;;;;;4.55;1.40;;;;;;;19.63;55.69;100493.25;4989309;28;20037;-82
2022/06/12 07:28:20;;;;;;;3.47;1.30;;;;;;;19.67;56.03;100495.44;5005859;28;20037;-82
2022/06/12 07:30:46;;;;;;;3.00;1.50;;;;;;;19.68;55.82;100497.09;4991920;28;20045;-82
2022/06/12 07:33:11;;;;;;;3.97;1.52;;;;;;;19.68;56.75;100493.56;4992151;28;20034;-88
2022/06/12 07:35:38;;;;;;;4.25;1.35;;;;;;;19.65;56.10;100489.34;4987580;28;20040;-83
2022/06/12 07:38:04;;;;;;;5.00;1.38;;;;;;;19.68;56.54;100494.41;5005827;28;21134;-83
2022/06/12 07:40:34;;;;;;;4.45;1.38;;;;;;;19.71;56.49;100496.75;4988117;28;20032;-83
2022/06/12 07:42:59;;;;;;;3.60;1.30;;;;;;;19.74;55.74;100499.09;5001943;28;20038;-83
2022/06/12 07:45:25;;;;;;;2.42;1.20;;;;;;;19.74;54.73;100499.09;4994458;28;20037;-82
2022/06/12 07:47:50;;;;;;;2.30;0.98;;;;;;;19.70;55.01;100503.19;4990266;28;20025;-83
2022/06/12 07:50:15;;;;;;;2.13;1.10;;;;;;;19.78;55.86;100505.84;5002685;28;20053;-82
2022/06/12 07:52:41;;;;;;;3.15;1.30;;;;;;;19.81;55.87;100507.34;4994249;28;20057;-82
2022/06/12 07:55:09;;;;;;;2.80;1.17;;;;;;;19.82;56.38;100509.03;4994640;28;20041;-82
2022/06/12 07:57:35;;;;;;;4.70;1.50;;;;;;;19.80;54.81;100505.66;5004296;28;20044;-82
2022/06/12 08:00:04;;;;;;;5.03;1.15;;;;;;;19.79;54.85;100503.97;4998702;28;20460;-89
2022/06/12 08:02:30;;;;;;;;;;;;;;;19.84;55.45;100506.13;4995296;28;20125;-84
2022/06/12 08:04:55;;;;;;;3.08;1.20;;;;;;;19.88;55.72;100502.03;5002328;28;20012;-83
2022/06/12 08:07:20;;;;;;;3.55;1.50;;;;;;;19.85;54.92;100502.38;5003579;28;20461;-84
2022/06/12 08:09:46;;;;;;;3.33;1.23;;;;;;;19.85;55.54;100496.94;4986053;28;20022;-84
2022/06/12 08:12:11;;;;;;;3.50;1.27;;;;;;;19.77;55.77;100506.84;4988741;28;20049;-86
2022/06/12 08:14:36;;;;;;;4.18;1.40;;;;;;;19.80;56.07;100500.22;4994939;28;20025;-85
2022/06/12 08:17:02;;;;;;;3.13;1.33;;;;;;;19.87;55.89;100503.06;5010653;28;20033;-84
2022/06/12 08:22:13;;;;;;;3.08;1.00;;;;;;;19.83;54.02;100494.41;5003714;28;20045;-84
2022/06/12 08:24:39;;;;;;;4.57;1.15;;;;;;;19.86;53.45;100488.63;4993618;28;20022;-85
2022/06/12 08:27:05;;;;;;;2.35;1.13;;;;;;;19.90;54.57;100498.09;4995087;28;20148;-84
2022/06/12 08:29:30;;;;;;;2.88;1.00;;;;;;;19.86;53.89;100499.47;4992908;28;20162;-84
2022/06/12 08:32:03;;;;;;;3.55;1.10;;;;;;;19.81;53.98;100499.19;5003333;28;20113;-88
2022/06/12 08:34:33;;;;;;;3.85;1.40;;;;;;;19.88;54.19;100494.75;4994315;28;20365;-88
2022/06/12 08:37:01;;;;;;;3.75;1.20;;;;;;;19.91;54.27;100497.09;4986320;28;20044;-88
2022/06/12 08:39:28;;;;;;;4.80;1.42;;;;;;;19.88;53.92;100499.31;5002395;28;20030;-88
2022/06/12 08:42:27;;;;;;;2.80;1.02;;;;;;;19.76;52.58;100505.16;4993510;28;20148;-87
2022/06/12 08:45:15;;;;;;;2.90;1.15;;;;;;;19.86;54.16;100499.47;4999872;28;20491;-89
2022/06/12 08:47:46;;;;;;;4.38;1.45;;;;;;;19.84;53.93;100496.09;5010701;28;20036;-88
2022/06/12 08:50:38;;;;;;;3.38;1.20;;;;;;;19.85;53.88;100491.50;5003660;28;20038;-86
2022/06/12 08:53:13;;;;;;;3.67;1.23;;;;;;;19.83;53.98;100485.44;4985463;28;20080;-87
2022/06/12 08:55:59;;;;;;;3.85;1.20;;;;;;;19.78;54.33;100486.84;5008022;28;20422;-88
2022/06/12 08:58:41;;;;;;;5.40;1.88;;;;;;;19.74;53.57;100482.81;5004114;28;20084;-87
2022/06/12 09:01:08;;;;;;;4.30;1.33;;;;;;;19.80;54.75;100475.78;4996034;28;20030;-88
2022/06/12 09:03:38;;;;;;;3.95;1.10;;;;;;;19.85;54.97;100476.06;4995046;28;20038;-88
2022/06/12 09:06:17;;;;;;;4.07;1.20;;;;;;;19.84;54.33;100481.69;5005242;28;20118;-87
2022/06/12 09:08:57;;;;;;;3.30;1.25;;;;;;;19.81;54.04;100472.88;5018501;28;20044;-74
2022/06/12 09:11:35;;;;;;;3.10;1.10;;;;;;;19.87;55.14;100474.03;5021144;28;20221;-87
2022/06/12 09:14:10;;;;;;;3.33;1.40;;;;;;;19.90;54.89;100475.53;4999840;28;20022;-88
2022/06/12 09:16:57;;;;;;;4.50;1.17;;;;;;;19.97;56.80;100460.19;4994618;28;20040;-87
2022/06/12 09:19:53;;;;;;;4.85;1.35;;;;;;;19.98;55.49;100461.88;5010280;28;20026;-88
2022/06/12 09:22:47;;;;;;;5.13;1.55;;;;;;;19.99;54.76;100450.84;4989109;28;20476;-88
2022/06/12 09:25:28;;;;;;;6.65;1.70;;;;;;;19.97;54.72;100454.75;5022277;28;20450;-86
2022/06/12 09:28:21;;;;;;;4.55;1.40;;;;;;;19.86;55.36;100453.31;5003821;28;20041;-85
2022/06/12 09:30:48;;;;;;;3.63;1.40;;;;;;;19.92;55.81;100465.34;5021509;28;20026;-86
2022/06/12 09:33:42;;;;;;;4.60;1.50;;;;;;;19.94;55.48;100455.13;5019431;28;20026;-85
2022/06/12 09:36:53;;;;;;;4.32;1.40;;;;;;;20.06;55.38;100456.34;4999845;28;20034;-85
2022/06/12 09:39:50;;;;;;;4.45;1.40;;;;;;;20.11;56.36;100459.34;5004349;28;20511;-86
2022/06/12 09:42:20;;;;;;;3.28;1.30;;;;;;;20.12;55.67;100456.44;4999422;28;20037;-85
2022/06/12 09:44:54;;;;;;;4.68;1.30;;;;;;;20.12;56.08;100447.47;4994555;28;20029;-85
2022/06/12 09:47:38;;;;;;;6.25;1.83;;;;;;;20.04;56.53;100455.69;5019343;28;20063;-85
2022/06/12 09:50:08;;;;;;;7.80;1.92;;;;;;;20.03;56.54;100452.16;5016552;28;20491;-86
2022/06/12 09:52:39;;;;;;;4.88;1.40;;;;;;;20.06;56.25;100457.19;4994128;28;20957;-86
2022/06/12 09:55:10;;;;;;;6.22;1.80;;;;;;;20.13;57.82;100449.13;4986426;28;20337;-85
2022/06/12 09:57:53;;;;;;;4.85;1.23;;;;;;;20.18;56.41;100449.41;5010094;28;20400;-85
2022/06/12 10:00:23;;;;;;;5.68;1.50;;;;;;;20.17;56.93;100444.19;4989498;28;20025;-85
2022/06/12 10:02:48;;;;;;;5.70;1.55;;;;;;;20.13;56.48;100443.72;5004757;28;20083;-85
2022/06/12 10:05:27;;;;;;;5.03;1.42;;;;;;;20.17;57.11;100450.44;5022562;28;20045;-87
2022/06/12 10:08:06;;;;;;;;;;;;;;;20.17;55.97;100450.44;5004233;28;20037;-85
2022/06/12 10:10:48;;;;;;;5.82;1.52;;;;;;;20.22;56.40;100450.72;5001986;28;19921;-85
2022/06/12 10:13:18;;;;;;;4.43;1.58;;;;;;;20.19;56.60;100450.25;4990023;28;20055;-85
2022/06/12 10:15:48;;;;;;;5.55;1.70;;;;;;;20.18;56.74;100445.84;4999645;28;20039;-85
2022/06/12 10:18:21;;;;;;;5.10;1.75;;;;;;;20.21;57.22;100448.19;5001393;28;20485;-86
2022/06/12 10:20:51;;;;;;;7.38;1.60;;;;;;;20.16;57.05;100443.34;5001835;28;20017;-85
2022/06/12 10:23:17;;;;;;;7.72;1.80;;;;;;;20.19;57.99;100445.66;5009153;28;20080;-85
2022/06/12 10:25:54;;;;;;;6.47;1.40;;;;;;;20.23;57.34;100441.53;4999159;28;20060;-85
2022/06/12 10:28:36;;;;;;;4.88;1.50;;;;;;;20.26;57.39;100434.88;5002475;28;20042;-85
2022/06/12 10:31:18;;;;;;;6.88;1.80;;;;;;;20.26;57.69;100445.75;5005868;28;20025;-88
2022/06/12 10:33:56;;;;;;;6.90;1.85;;;;;;;20.23;59.22;100438.81;4997770;28;20033;-85
2022/06/12 10:36:28;;;;;;;7.35;1.85;;;;;;;20.22;57.89;100434.44;5004178;28;20030;-85
2022/06/12 10:39:03;;;;;;;3.80;1.70;;;;;;;20.29;59.18;100439.94;4993360;28;20529;-85
2022/06/12 10:41:28;;;;;;;4.45;1.55;;;;;;;;;;5020903;28;20064;-86
2022/06/12 10:43:56;;;;;;;6.22;1.65;;;;;;;20.37;58.52;100427.13;5024554;28;20026;-86
2022/06/12 10:46:30;;;;;;;5.50;1.85;;;;;;;20.43;57.89;100439.13;5009212;28;20117;-87
2022/06/12 10:49:13;;;;;;;7.78;2.10;;;;;;;20.41;57.99;100439.34;4996408;28;20033;-85
2022/06/12 10:51:40;;;;;;;4.20;1.27;;;;;;;20.46;58.28;100435.19;4989831;28;20026;-86
2022/06/12 10:54:20;;;;;;;5.63;1.58;;;;;;;20.48;58.07;100428.53;5006954;28;20045;-85
2022/06/12 10:56:50;;;;;;;7.18;1.55;;;;;;;20.54;58.10;100427.78;5004096;28;20124;-85
2022/06/12 10:59:34;;;;;;;4.88;1.80;;;;;;;20.57;57.54;100435.53;5003882;28;20033;-85
2022/06/12 11:02:33;;;;;;;5.45;1.88;;;;;;;20.60;56.52;100426.16;5002639;28;20038;-85
2022/06/12 11:05:29;;;;;;;7.15;1.70;;;;;;;20.62;57.51;100419.50;5000342;28;20541;-85
2022/06/12 11:08:06;;;;;;;6.68;1.65;;;;;;;20.66;56.90;100415.38;5003026;28;20037;-85
2022/06/12 11:10:40;;;;;;;6.13;1.90;;;;;;;20.67;56.68;100422.47;5019526;28;20037;-85
2022/06/12 11:13:31;;;;;;;4.22;1.55;;;;;;;20.72;57.90;100425.47;5001955;28;20348;-85
2022/06/12 11:16:26;;;;;;;4.35;1.63;;;;;;;20.79;57.68;100417.38;5020553;28;20033;-85
2022/06/12 11:19:26;;;;;;;6.68;1.60;;;;;;;20.83;57.21;100418.72;5001460;28;20229;-85
2022/06/12 11:22:26;;;;;;;5.20;1.40;;;;;;;20.74;56.33;100412.53;4978382;28;20037;-86
2022/06/12 11:25:17;;;;;;;3.58;1.48;;;;;;;20.81;56.53;100415.34;4978937;28;20038;-85
2022/06/12 11:28:13;;;;;;;7.57;1.70;;;;;;;20.90;57.08;100407.91;5007983;28;20125;-86
2022/06/12 11:31:00;;;;;;;5.82;1.80;;;;;;;20.91;54.45;100410.41;5012621;28;20038;-86
2022/06/12 11:33:36;;;;;;;4.13;1.60;;;;;;;20.89;56.51;100406.22;4987511;28;20044;-85
2022/06/12 11:36:21;;;;;;;5.47;1.75;;;;;;;20.90;56.83;100406.03;5002986;28;20356;-85
2022/06/12 11:38:49;;;;;;;4.25;1.50;;;;;;;20.90;56.63;100407.91;5014834;28;20025;-86
2022/06/12 11:41:52;;;;;;;6.10;1.70;;;;;;;20.91;56.27;100407.72;5017511;28;20079;-85
2022/06/12 11:44:36;;;;;;;6.10;1.70;;;;;;;20.93;55.39;100400.19;5016802;28;20361;-86
2022/06/12 11:47:12;;;;;;;5.75;1.70;;;;;;;20.97;56.34;100396.03;5019126;28;20033;-85
2022/06/12 11:49:59;;;;;;;5.97;1.80;;;;;;;20.91;55.02;100385.94;4997618;28;20026;-87
2022/06/12 11:52:33;;;;;;;6.00;1.70;;;;;;;20.92;56.02;100389.50;4998227;28;20041;-85
2022/06/12 11:54:58;;;;;;;5.28;1.50;;;;;;;21.00;56.01;100382.06;5018431;28;20179;-85
2022/06/12 11:57:36;;;;;;;4.72;1.65;;;;;;;21.08;56.51;100382.97;5021512;28;20046;-85
2022/06/12 12:00:05;;;;;;;;;;;;;;;21.14;56.70;100383.00;4999779;28;20044;-86
2022/06/12 12:02:42;;;;;;;4.43;1.40;;;;;;;21.21;58.30;100375.75;5006819;28;19917;-85
2022/06/12 12:05:22;;;;;;;6.32;1.70;;;;;;;21.22;55.92;100371.16;5017717;28;20037;-85
2022/06/12 12:07:57;;;;;;;6.20;1.50;;;;;;;21.22;55.68;100373.88;5001697;28;20040;-86
2022/06/12 12:10:31;;;;;;;5.65;1.42;;;;;;;21.26;56.22;100367.03;5016414;28;20076;-85